Buoy 48642

sailwx.info

Track history (hours):
 
Tides and Currents Weather Stations Pressure Air Temp Water Temp Dewpoint Dewpoint Depression Visibility Wind Speed Wind Dir Waves Ship Positions

Drifting buoy 48642

Last reported at 2018-May-20 19:05 UTC. Time now 2018-May-20 20:56 UTC.
Position N 70°54' W 152°49'.

Barometer 1017.1 mb
Water temperature -5.8 ° C

Date/timePositionNaut miles runAvg speedWind from/ knotsBaromVisibWave heightAir tempDewpointWater temp
2018-May-20 19:05N 70°54' W 152°49'0 0.0 1017.1 -5.8
2018-May-20 19:00N 70°54' W 152°49'0 0.0 1017.1 -3.0 -5.8
2018-May-20 18:05N 70°54' W 152°49'0 0.0 1017.3 -6.0
2018-May-20 18:00N 70°54' W 152°49'0 0.0 1017.3 -5.1 -6.0
2018-May-20 17:04N 70°54' W 152°49'0 0.0 1017.5 -6.1
2018-May-20 17:00N 70°54' W 152°49'0 0.0 1017.5 -6.4 -6.1
2018-May-20 16:00N 70°54' W 152°49'0 0.0 1017.9 -7.1 -6.1
2018-May-20 15:05N 70°54' W 152°49'0 0.0 1018.2 -6.0
2018-May-20 15:00N 70°54' W 152°49'0 0.0 1018.2 -7.5 -6.0
2018-May-20 14:06N 70°54' W 152°49'0 0.0 1018.1 -6.0
2018-May-20 14:00N 70°54' W 152°49'0 0.0 1018.1 -7.8 -6.0
2018-May-20 13:05N 70°54' W 152°49'0 0.0 1018.4 -5.9
2018-May-20 13:00N 70°54' W 152°49'0 0.0 1018.4 -7.6 -5.9
2018-May-20 12:04N 70°54' W 152°49'0 0.0 1018.5 -5.7
2018-May-20 12:00N 70°54' W 152°49'0 0.0 1018.5 -7.9 -5.7
2018-May-20 11:04N 70°54' W 152°49'0 0.0 1018.7 -5.5
2018-May-20 11:00N 70°54' W 152°49'0 0.0 1018.7 -8.2 -5.5
2018-May-20 10:05N 70°54' W 152°49'0 0.0 1019.2 -5.2
2018-May-20 10:00N 70°54' W 152°49'0 0.0 1019.2 -8.0 -5.2
2018-May-20 09:07N 70°54' W 152°49'0 0.0 1019.4 -4.9
2018-May-20 09:00N 70°54' W 152°49'0 0.0 1019.4 -7.4 -4.9
2018-May-20 08:05N 70°54' W 152°49'0 0.0 1019.4 -4.6
2018-May-20 08:00N 70°54' W 152°49'0 0.0 1019.4 -7.0 -4.6
2018-May-20 07:04N 70°54' W 152°49'0 0.0 1019.4 -4.3
2018-May-20 07:00N 70°54' W 152°49'0 0.0 1019.4 -6.2 -4.3
2018-May-20 06:05N 70°54' W 152°49'0 0.0 1019.7 -4.1
2018-May-20 06:00N 70°54' W 152°49'0 0.0 1019.7 -5.5 -4.1
2018-May-20 05:04N 70°54' W 152°49'0 0.0 1019.9 -3.9
2018-May-20 05:00N 70°54' W 152°49'0 0.0 1019.9 -4.3 -3.9
2018-May-20 04:05N 70°54' W 152°49'0 0.0 1020.2 -3.9
2018-May-20 04:00N 70°54' W 152°49'0 0.0 1020.2 -3.0 -3.9
2018-May-20 03:05N 70°54' W 152°49'0 0.0 1020.5 -3.8
2018-May-20 03:00N 70°54' W 152°49'0 0.0 1020.5 -2.4 -3.8
2018-May-20 02:05N 70°54' W 152°49'0 0.0 1020.7 -3.9
2018-May-20 02:00N 70°54' W 152°49'0 0.0 1020.7 -1.8 -3.9
2018-May-20 01:00N 70°54' W 152°49'0 0.0 1021.0 -1.7 -4.0
2018-May-20 00:00N 70°54' W 152°49'0 0.0 1021.3 -1.9 -4.3
2018-May-19 23:00N 70°54' W 152°49'0 0.0 1021.8 -1.6 -4.6
2018-May-19 22:00N 70°54' W 152°49'0 0.0 1022.2 -1.1 -5.0
2018-May-19 21:00N 70°54' W 152°49'0 0.0 1022.3 -1.4 -5.3
2018-May-19 20:00N 70°54' W 152°49'0 0.0 1022.7 -1.9 -5.7
2018-May-19 19:00N 70°54' W 152°49'0 0.0 1023.1 -2.6 -6.0
2018-May-19 18:00N 70°54' W 152°49'0 0.0 1023.2 -3.2 -6.2
2018-May-19 17:00N 70°54' W 152°49'0 0.0 1023.2 -4.3 -6.3
2018-May-19 16:00N 70°54' W 152°49'0 0.0 1023.4 -5.7 -6.4
2018-May-19 15:00N 70°54' W 152°49'0 0.0 1023.7 -7.2 -6.3
2018-May-19 14:00N 70°54' W 152°49'0 0.0 1024.2 -8.7 -6.2
2018-May-19 13:00N 70°54' W 152°49'0 0.0 1024.5 -9.6 -6.0
2018-May-19 12:00N 70°54' W 152°49'0 0.0 1024.8 -9.9 -5.8
2018-May-19 11:00N 70°54' W 152°49'0 0.0 1025.1 -8.4 -5.6
2018-May-19 10:00N 70°54' W 152°49'0 0.0 1025.4 -8.5 -5.4
2018-May-19 09:00N 70°54' W 152°49'0 0.0 1025.8 -8.3 -5.2
2018-May-19 08:00N 70°54' W 152°49'0 0.0 1026.0 -7.9 -4.9
2018-May-19 07:00N 70°54' W 152°49'0 0.0 1026.4 -7.3 -4.8
2018-May-19 06:00N 70°54' W 152°49'0 0.0 1026.5 -7.0 -4.6
2018-May-19 05:00N 70°54' W 152°49'0 0.0 1026.7 -6.4 -4.5
2018-May-19 04:00N 70°54' W 152°49'0 0.0 1027.1 -5.7 -4.4
2018-May-19 03:00N 70°54' W 152°49'0 0.0 1027.3 -5.1 -4.3
2018-May-19 02:06N 70°54' W 152°49'0 0.0 1027.7 -4.4
2018-May-19 02:00N 70°54' W 152°49'0 0.0 1027.7 -5.2 -4.4
2018-May-19 01:04N 70°54' W 152°49'0 0.0 1028.1 -4.5
2018-May-19 01:00N 70°54' W 152°49'0 0.0 1028.1 -4.6 -4.5
2018-May-19 00:09N 70°54' W 152°49'0 0.0 1028.6 -4.6
2018-May-19 00:00N 70°54' W 152°49'0 0.0 1028.6 -4.6 -4.6
2018-May-18 23:04N 70°54' W 152°49'0 0.0 1028.9 -4.7
2018-May-18 23:00N 70°54' W 152°49'0 0.0 1028.9 -4.1 -4.7
2018-May-18 22:04N 70°54' W 152°49'0 0.0 1029.3 -5.0
2018-May-18 22:00N 70°54' W 152°49'0 0.0 1029.3 -4.0 -5.0
2018-May-18 21:04N 70°54' W 152°49'0 0.0 1029.6 -5.2
2018-May-18 21:00N 70°54' W 152°49'0 0.0 1029.6 -4.6 -5.2
2018-May-18 20:05N 70°54' W 152°49'0 0.0 1029.8 -5.3
2018-May-18 20:00N 70°54' W 152°49'0 0.0 1029.8 -4.9 -5.3
2018-May-18 19:04N 70°54' W 152°49'0 0.0 1029.9 -5.4
2018-May-18 19:00N 70°54' W 152°49'0 0.0 1029.9 -5.6 -5.4
2018-May-18 18:06N 70°54' W 152°49'0 0.0 1030.0 -5.5
2018-May-18 18:00N 70°54' W 152°49'0 0.0 1030.0 -6.6 -5.5
2018-May-18 17:05N 70°54' W 152°49'0 0.0 1030.1 -5.5
2018-May-18 17:00N 70°54' W 152°49'0 0.0 1030.1 -6.6 -5.5
2018-May-18 16:05N 70°54' W 152°49'0 0.0 1030.0 -5.0
2018-May-18 16:04N 70°54' W 152°49'0 0.0 1030.1 -5.5
2018-May-18 16:00N 70°54' W 152°49'0 0.0 1030.1 -7.2 -5.5
2018-May-16 23:04N 70°54' W 152°49'0 0.0 1023.3 -3.5
2018-May-16 23:00N 70°54' W 152°49'0 0.0 1023.3 -2.7 -3.5
2018-May-16 22:04N 70°54' W 152°49'0 0.0 1023.2 -3.6
2018-May-16 22:00N 70°54' W 152°49'0 0.0 1023.2 -2.4 -3.6
2018-May-16 21:04N 70°54' W 152°49'0 0.0 1023.1 -3.7
2018-May-16 21:00N 70°54' W 152°49'0 0.0 1023.1 -2.6 -3.7
2018-May-16 19:06N 70°54' W 152°49'0 0.0 1022.8 -3.8
2018-May-16 19:00N 70°54' W 152°49'0 0.0 1022.8 -3.4 -3.8
2018-May-16 18:04N 70°54' W 152°49'0 0.0 1022.7 -3.8
2018-May-16 18:00N 70°54' W 152°49'0 0.0 1022.7 -3.6 -3.8
2018-May-16 17:05N 70°54' W 152°49'0 0.0 1022.5 -3.8
2018-May-16 17:00N 70°54' W 152°49'0 0.0 1022.5 -3.8 -3.8
2018-May-16 16:04N 70°54' W 152°49'0 0.0 1022.5 -3.8
2018-May-16 16:00N 70°54' W 152°49'0 0.0 1022.5 -4.0 -3.8
2018-May-16 15:05N 70°54' W 152°49'0 0.0 1022.4 -3.7
2018-May-16 15:00N 70°54' W 152°49'0 0.0 1022.4 -4.5 -3.7
2018-May-16 14:05N 70°54' W 152°49'0 0.0 1022.3 -3.6
2018-May-16 14:00N 70°54' W 152°49'0 0.0 1022.3 -4.5 -3.6
2018-May-16 13:05N 70°54' W 152°49'0 0.0 1022.4 -3.5
2018-May-16 13:00N 70°54' W 152°49'0 0.0 1022.4 -4.7 -3.5
2018-May-16 12:05N 70°54' W 152°49'0 0.0 1022.4 -3.3
2018-May-16 12:00N 70°54' W 152°49'0 0.0 1022.4 -4.4 -3.3
2018-May-16 11:00N 70°54' W 152°49'0 0.0 1022.1 -3.2
2018-May-16 10:05N 70°54' W 152°49'0 0.0 1022.0 -3.0
2018-May-16 10:00N 70°54' W 152°49'0 0.0 1022.0 -3.9 -3.0
2018-May-16 09:04N 70°54' W 152°49'0 0.0 1021.8 -2.9
2018-May-16 09:00N 70°54' W 152°49'0 0.0 1021.8 -3.7 -2.9
2018-May-16 08:05N 70°54' W 152°49'0 0.0 1021.4 -2.7
2018-May-16 08:00N 70°54' W 152°49'0 0.0 1021.4 -3.1 -2.7
2018-May-16 07:05N 70°54' W 152°49'0 0.0 1021.1 -2.6
2018-May-16 07:00N 70°54' W 152°49'0 0.0 1021.1 -2.2 -2.6
2018-May-16 06:04N 70°54' W 152°49'0 0.0 1021.0 -2.5
2018-May-16 06:00N 70°54' W 152°49'0 0.0 1021.0 -1.9 -2.5
2018-May-16 05:04N 70°54' W 152°49'0 0.0 1020.7 -2.5
2018-May-16 05:00N 70°54' W 152°49'0 0.0 1020.7 -1.0 -2.5
2018-May-16 04:05N 70°54' W 152°49'0 0.0 1020.6 -2.4
2018-May-16 04:00N 70°54' W 152°49'0 0.0 1020.6 -0.7 -2.4
2018-May-16 03:00N 70°54' W 152°49'0 0.0 1020.5 0.1 -2.4
2018-May-16 02:05N 70°54' W 152°49'0 0.0 1020.3 -2.5
2018-May-15 22:04N 70°54' W 152°49'0 0.0 1020.1 -2.7
2018-May-15 22:00N 70°54' W 152°49'0 0.0 1020.1 0.7 -2.7
2018-May-15 21:04N 70°54' W 152°49'0 0.0 1019.9 -2.8
2018-May-15 21:00N 70°54' W 152°49'0 0.0 1019.9 0.9 -2.8
2018-May-15 20:00N 70°54' W 152°49'0 0.0 1019.6 0.7 -2.9
2018-May-15 19:05N 70°54' W 152°49'0 0.0 1019.3 -3.0
2018-May-15 19:00N 70°54' W 152°49'0 0.0 1019.3 -0.1 -3.0
2018-May-15 18:04N 70°54' W 152°49'0 0.0 1019.1 -3.1
2018-May-15 18:00N 70°54' W 152°49'0 0.0 1019.1 -0.8 -3.1
2018-May-15 17:06N 70°54' W 152°49'0 0.0 1018.8 -3.1
2018-May-15 17:00N 70°54' W 152°49'0 0.0 1018.8 -1.4 -3.1
2018-May-15 16:04N 70°54' W 152°49'0 0.0 1018.8 -3.1
2018-May-15 16:00N 70°54' W 152°49'0 0.0 1018.8 -2.0 -3.1
2018-May-15 15:00N 70°54' W 152°49'0 0.0 1018.8 -2.2 -3.1
2018-May-15 14:04N 70°54' W 152°49'0 0.0 1018.5 -3.1
2018-May-15 14:00N 70°54' W 152°49'0 0.0 1018.5 -2.7 -3.1
2018-May-15 13:05N 70°54' W 152°49'0 0.0 1018.4 -3.0
2018-May-15 13:00N 70°54' W 152°49'0 0.0 1018.4 -2.9 -3.0
2018-May-15 12:05N 70°54' W 152°49'0 0.0 1018.3 -2.9
2018-May-15 12:00N 70°54' W 152°49'0 0.0 1018.3 -3.0 -2.9
2018-May-15 11:05N 70°54' W 152°49'0 0.0 1018.2 -2.8
2018-May-15 11:00N 70°54' W 152°49'0 0.0 1018.2 -3.0 -2.8
2018-May-15 10:06N 70°54' W 152°49'0 0.0 1018.1 -2.8
2018-May-15 10:00N 70°54' W 152°49'0 0.0 1018.1 -3.0 -2.8
2018-May-15 09:05N 70°54' W 152°49'0 0.0 1017.9 -2.7
2018-May-15 09:00N 70°54' W 152°49'0 0.0 1017.9 -3.0 -2.7
2018-May-15 08:05N 70°54' W 152°49'0 0.0 1017.6 -2.6
2018-May-15 08:00N 70°54' W 152°49'0 0.0 1017.6 -3.0 -2.6
2018-May-15 07:05N 70°54' W 152°49'0 0.0 1017.3 -2.4
2018-May-15 07:00N 70°54' W 152°49'0 0.0 1017.4 -3.0 -2.5
2018-May-15 06:04N 70°54' W 152°49'0 0.0 1015.7 -2.8
2018-May-15 06:00N 70°54' W 152°49'0 0.0 1017.3 -2.7 -2.4
2018-May-13 20:00N 70°54' W 152°49'0 0.0 1016.7 -4.9
2018-May-13 19:05N 70°54' W 152°49'0 0.0 1016.6 -5.0
2018-May-13 19:00N 70°54' W 152°49'0 0.0 1016.6 3.4 -5.0
2018-May-13 18:04N 70°54' W 152°49'0 0.0 1016.5 -5.1
2018-May-13 18:00N 70°54' W 152°49'0 0.0 1016.5 2.8 -5.1
2018-May-13 17:05N 70°54' W 152°49'0 0.0 1016.6 -5.2
2018-May-13 17:00N 70°54' W 152°49'0 0.0 1016.6 2.7 -5.2
2018-May-13 16:04N 70°54' W 152°49'0 0.0 1016.7 -5.2
2018-May-13 16:00N 70°54' W 152°49'0 0.0 1016.7 -0.8 -5.2
2018-May-13 15:05N 70°54' W 152°49'0 0.0 1016.7 -5.1
2018-May-13 15:00N 70°54' W 152°49'0 0.0 1016.7 -2.9 -5.1
2018-May-13 14:06N 70°54' W 152°49'0 0.0 1016.5 -5.0
2018-May-13 14:00N 70°54' W 152°49'0 0.0 1016.5 -4.8 -5.0
2018-May-13 13:04N 70°54' W 152°49'0 0.0 1016.5 -5.0
2018-May-13 13:00N 70°54' W 152°49'0 0.0 1016.5 -4.7 -5.0
2018-May-13 12:05N 70°54' W 152°49'0 0.0 1016.5 -4.9
2018-May-13 12:00N 70°54' W 152°49'0 0.0 1016.5 -5.0 -4.9
2018-May-13 11:00N 70°54' W 152°49'0 0.0 1016.3 -4.1 -4.9
2018-May-13 10:05N 70°54' W 152°49'0 0.0 1016.0 -4.8
2018-May-13 10:00N 70°54' W 152°49'0 0.0 1016.0 -2.9 -4.8
2018-May-13 09:06N 70°54' W 152°49'0 0.0 1008.0 -5.7
2018-May-13 09:00N 70°54' W 152°49'0 0.0 1015.8 -1.7 -4.8
2018-May-12 21:04N 70°54' W 152°49'0 0.0 1007.2 -5.8
2018-May-12 21:00N 70°54' W 152°49'0 0.0 1007.2 1.5 -5.8
2018-May-12 20:05N 70°54' W 152°49'0 0.0 1006.9 -5.8
2018-May-12 20:00N 70°54' W 152°49'0 0.0 1006.9 -1.1 -5.8
2018-May-12 19:04N 70°54' W 152°49'0 0.0 1006.9 -5.8
2018-May-12 19:00N 70°54' W 152°49'0 0.0 1006.9 -1.3 -5.8
2018-May-12 18:04N 70°54' W 152°49'0 0.0 1006.7 -5.9
2018-May-12 18:00N 70°54' W 152°49'0 0.0 1006.7 -2.2 -5.9
2018-May-12 17:06N 70°54' W 152°49'0 0.0 1006.4 -5.9
2018-May-12 17:00N 70°54' W 152°49'0 0.0 1006.4 -2.6 -5.9
2018-May-12 16:05N 70°54' W 152°49'0 0.0 1006.1 -5.9
2018-May-12 16:00N 70°54' W 152°49'0 0.0 1006.1 -3.1 -5.9
2018-May-12 15:08N 70°54' W 152°49'0 0.0 1005.8 -5.9
2018-May-12 15:00N 70°54' W 152°49'0 0.0 1005.8 -3.4 -5.9
2018-May-12 14:04N 70°54' W 152°49'0 0.0 1005.4 -5.9
2018-May-12 14:00N 70°54' W 152°49'0 0.0 1005.4 -3.3 -5.9
2018-May-12 13:05N 70°54' W 152°49'0 0.0 1004.9 -5.8
2018-May-12 13:00N 70°54' W 152°49'0 0.0 1004.9 -3.4 -5.8
2018-May-12 12:04N 70°54' W 152°49'0 0.0 1004.6 -5.8
2018-May-12 12:00N 70°54' W 152°49'0 0.0 1004.6 -3.4 -5.8
2018-May-12 11:05N 70°54' W 152°49'0 0.0 1004.4 -5.8
2018-May-12 11:00N 70°54' W 152°49'0 0.0 1004.4 -3.2 -5.8
2018-May-12 10:04N 70°54' W 152°49'0 0.0 1004.2 -5.7
2018-May-12 10:00N 70°54' W 152°49'0 0.0 1004.2 -3.1 -5.7
2018-May-12 09:04N 70°54' W 152°49'0 0.0 1003.9 -5.7
2018-May-12 09:00N 70°54' W 152°49'0 0.0 1003.9 -2.9 -5.7
2018-May-12 08:04N 70°54' W 152°49'0 0.0 1003.7 -5.7
2018-May-12 08:00N 70°54' W 152°49'0 0.0 1003.7 -2.7 -5.7
2018-May-12 07:04N 70°54' W 152°49'0 0.0 1003.1 -5.7
2018-May-12 07:00N 70°54' W 152°49'0 0.0 1003.1 -2.5 -5.7
2018-May-12 06:04N 70°54' W 152°49'0 0.0 1002.9 -5.7
2018-May-12 06:00N 70°54' W 152°49'0 0.0 1002.9 -2.0 -5.7
2018-May-12 05:05N 70°54' W 152°49'0 0.0 1002.7 -5.8
2018-May-12 05:00N 70°54' W 152°49'0 0.0 1002.7 -1.5 -5.8
2018-May-12 04:05N 70°54' W 152°49'0 0.0 1002.5 -5.8
2018-May-12 04:00N 70°54' W 152°49'0 0.0 1002.5 -1.1 -5.8
2018-May-12 03:07N 70°54' W 152°49'0 0.0 1002.5 -5.9
2018-May-12 03:00N 70°54' W 152°49'0 0.0 1002.5 -0.9 -5.9
2018-May-12 02:04N 70°54' W 152°49'0 0.0 1002.6 -6.0
2018-May-12 02:00N 70°54' W 152°49'0 0.0 1002.6 -0.8 -6.0
2018-May-12 01:05N 70°54' W 152°49'0 0.0 1002.8 -6.1
2018-May-12 01:00N 70°54' W 152°49'0 0.0 1002.8 -0.8 -6.1
2018-May-12 00:00N 70°54' W 152°49'0 0.0 1002.8 -0.8 -6.2
2018-May-11 23:05N 70°54' W 152°49'0 0.0 1002.8 -6.3
2018-May-11 23:00N 70°54' W 152°49'0 0.0 1002.8 -1.5 -6.3
2018-May-11 22:04N 70°54' W 152°49'0 0.0 1003.0 -6.4
2018-May-11 22:00N 70°54' W 152°49'0 0.0 1003.0 -1.7 -6.4
2018-May-11 21:04N 70°54' W 152°49'0 0.0 1003.1 -6.5
2018-May-11 21:00N 70°54' W 152°49'0 0.0 1003.1 -2.3 -6.5
2018-May-11 20:05N 70°54' W 152°49'0 0.0 1003.2 -6.6
2018-May-11 20:00N 70°54' W 152°49'0 0.0 1003.2 -2.6 -6.6
2018-May-11 19:04N 70°54' W 152°49'0 0.0 1003.6 -6.7
2018-May-11 19:00N 70°54' W 152°49'0 0.0 1003.6 -3.2 -6.7
2018-May-11 18:04N 70°54' W 152°49'0 0.0 1004.1 -6.7
2018-May-11 18:00N 70°54' W 152°49'0 0.0 1004.1 -3.6 -6.7
2018-May-11 17:04N 70°54' W 152°49'0 0.0 1004.5 -6.7
2018-May-11 17:00N 70°54' W 152°49'0 0.0 1004.5 -4.0 -6.7
2018-May-11 16:04N 70°54' W 152°49'0 0.0 1004.7 -6.7
2018-May-11 16:00N 70°54' W 152°49'0 0.0 1004.7 -4.5 -6.7
2018-May-11 15:05N 70°54' W 152°49'0 0.0 1005.2 -6.7
2018-May-11 15:00N 70°54' W 152°49'0 0.0 1005.2 -5.2 -6.7
2018-May-11 14:05N 70°54' W 152°49'0 0.0 1005.6 -6.7
2018-May-11 14:00N 70°54' W 152°49'0 0.0 1005.6 -5.1 -6.7
2018-May-11 13:05N 70°54' W 152°49'0 0.0 1006.2 -6.6
2018-May-11 13:00N 70°54' W 152°49'0 0.0 1006.2 -5.1 -6.6
2018-May-11 12:05N 70°54' W 152°49'0 0.0 1006.5 -6.6
2018-May-11 12:00N 70°54' W 152°49'0 0.0 1006.5 -5.1 -6.6
2018-May-11 11:05N 70°54' W 152°49'0 0.0 1006.9 -6.5
2018-May-11 11:00N 70°54' W 152°49'0 0.0 1006.9 -5.0 -6.5
2018-May-11 10:04N 70°54' W 152°49'0 0.0 1007.0 -6.5
2018-May-11 10:00N 70°54' W 152°49'0 0.0 1007.0 -5.0 -6.5
2018-May-11 09:05N 70°54' W 152°49'0 0.0 1007.3 -6.4
2018-May-11 09:00N 70°54' W 152°49'0 0.0 1007.3 -4.8 -6.4
2018-May-11 08:07N 70°54' W 152°49'0 0.0 1007.7 -6.4
2018-May-11 08:00N 70°54' W 152°49'0 0.0 1007.7 -4.3 -6.4
2018-May-11 07:04N 70°54' W 152°49'0 0.0 1008.0 -6.4
2018-May-11 07:00N 70°54' W 152°49'0 0.0 1008.0 -3.7 -6.4
2018-May-11 06:04N 70°54' W 152°49'0 0.0 1007.7 -6.4
2018-May-11 06:00N 70°54' W 152°49'0 0.0 1007.7 -3.4 -6.4
2018-May-11 05:04N 70°54' W 152°49'0 0.0 1008.6 -6.4
2018-May-11 05:00N 70°54' W 152°49'0 0.0 1008.6 -3.1 -6.4
2018-May-11 04:05N 70°54' W 152°49'0 0.0 1009.0 -6.5
2018-May-11 04:00N 70°54' W 152°49'0 0.0 1009.0 -2.9 -6.5
2018-May-11 03:05N 70°54' W 152°49'0 0.0 1009.0 -6.6
2018-May-11 03:00N 70°54' W 152°49'0 0.0 1009.0 -2.3 -6.6
2018-May-11 02:04N 70°54' W 152°49'0 0.0 1009.0 -6.7
2018-May-11 02:00N 70°54' W 152°49'0 0.0 1009.0 -1.8 -6.7
2018-May-11 01:06N 70°54' W 152°49'0 0.0 1009.9 -7.1
2018-May-11 01:00N 70°54' W 152°49'0 0.0 1009.4 -2.2 -6.9
2018-May-11 00:00N 70°54' W 152°49'0 0.0 1009.9 -1.4 -7.1
2018-May-10 23:05N 70°54' W 152°49'0 0.0 1010.3 -7.3
2018-May-10 23:00N 70°54' W 152°49'0 0.0 1010.3 -2.0 -7.3
2018-May-10 22:05N 70°54' W 152°49'0 0.0 1010.2 -7.4
2018-May-10 22:00N 70°54' W 152°49'0 0.0 1010.2 -2.4 -7.4
2018-May-10 21:07N 70°54' W 152°49'0 0.0 1010.8 -7.6
2018-May-10 21:00N 70°54' W 152°49'0 0.0 1010.8 -2.1 -7.6
2018-May-10 20:05N 70°54' W 152°49'0 0.0 1011.2 -7.7
2018-May-10 20:00N 70°54' W 152°49'0 0.0 1011.2 -1.9 -7.7
2018-May-10 19:05N 70°54' W 152°49'   1011.4 -7.8
Track history (hours):
 
Tides and Currents Weather Stations Pressure Air Temp Water Temp Dewpoint Dewpoint Depression Visibility Wind Speed Wind Dir Waves Ship Positions

Drifting buoy 48642

Last reported at 2018-May-20 19:05 UTC. Time now 2018-May-20 20:56 UTC.
Position N 70°54' W 152°49'.

Barometer 1017.1 mb
Water temperature -5.8 ° C

Date/timePositionNaut miles runAvg speedWind from/ knotsBaromVisibWave heightAir tempDewpointWater temp
2018-May-20 19:05N 70°54' W 152°49'0 0.0 1017.1 -5.8
2018-May-20 19:00N 70°54' W 152°49'0 0.0 1017.1 -3.0 -5.8
2018-May-20 18:05N 70°54' W 152°49'0 0.0 1017.3 -6.0
2018-May-20 18:00N 70°54' W 152°49'0 0.0 1017.3 -5.1 -6.0
2018-May-20 17:04N 70°54' W 152°49'0 0.0 1017.5 -6.1
2018-May-20 17:00N 70°54' W 152°49'0 0.0 1017.5 -6.4 -6.1
2018-May-20 16:00N 70°54' W 152°49'0 0.0 1017.9 -7.1 -6.1
2018-May-20 15:05N 70°54' W 152°49'0 0.0 1018.2 -6.0
2018-May-20 15:00N 70°54' W 152°49'0 0.0 1018.2 -7.5 -6.0
2018-May-20 14:06N 70°54' W 152°49'0 0.0 1018.1 -6.0
2018-May-20 14:00N 70°54' W 152°49'0 0.0 1018.1 -7.8 -6.0
2018-May-20 13:05N 70°54' W 152°49'0 0.0 1018.4 -5.9
2018-May-20 13:00N 70°54' W 152°49'0 0.0 1018.4 -7.6 -5.9
2018-May-20 12:04N 70°54' W 152°49'0 0.0 1018.5 -5.7
2018-May-20 12:00N 70°54' W 152°49'0 0.0 1018.5 -7.9 -5.7
2018-May-20 11:04N 70°54' W 152°49'0 0.0 1018.7 -5.5
2018-May-20 11:00N 70°54' W 152°49'0 0.0 1018.7 -8.2 -5.5
2018-May-20 10:05N 70°54' W 152°49'0 0.0 1019.2 -5.2
2018-May-20 10:00N 70°54' W 152°49'0 0.0 1019.2 -8.0 -5.2
2018-May-20 09:07N 70°54' W 152°49'0 0.0 1019.4 -4.9
2018-May-20 09:00N 70°54' W 152°49'0 0.0 1019.4 -7.4 -4.9
2018-May-20 08:05N 70°54' W 152°49'0 0.0 1019.4 -4.6
2018-May-20 08:00N 70°54' W 152°49'0 0.0 1019.4 -7.0 -4.6
2018-May-20 07:04N 70°54' W 152°49'0 0.0 1019.4 -4.3
2018-May-20 07:00N 70°54' W 152°49'0 0.0 1019.4 -6.2 -4.3
2018-May-20 06:05N 70°54' W 152°49'0 0.0 1019.7 -4.1
2018-May-20 06:00N 70°54' W 152°49'0 0.0 1019.7 -5.5 -4.1
2018-May-20 05:04N 70°54' W 152°49'0 0.0 1019.9 -3.9
2018-May-20 05:00N 70°54' W 152°49'0 0.0 1019.9 -4.3 -3.9
2018-May-20 04:05N 70°54' W 152°49'0 0.0 1020.2 -3.9
2018-May-20 04:00N 70°54' W 152°49'0 0.0 1020.2 -3.0 -3.9
2018-May-20 03:05N 70°54' W 152°49'0 0.0 1020.5 -3.8
2018-May-20 03:00N 70°54' W 152°49'0 0.0 1020.5 -2.4 -3.8
2018-May-20 02:05N 70°54' W 152°49'0 0.0 1020.7 -3.9
2018-May-20 02:00N 70°54' W 152°49'0 0.0 1020.7 -1.8 -3.9
2018-May-20 01:00N 70°54' W 152°49'0 0.0 1021.0 -1.7 -4.0
2018-May-20 00:00N 70°54' W 152°49'0 0.0 1021.3 -1.9 -4.3
2018-May-19 23:00N 70°54' W 152°49'0 0.0 1021.8 -1.6 -4.6
2018-May-19 22:00N 70°54' W 152°49'0 0.0 1022.2 -1.1 -5.0
2018-May-19 21:00N 70°54' W 152°49'0 0.0 1022.3 -1.4 -5.3
2018-May-19 20:00N 70°54' W 152°49'0 0.0 1022.7 -1.9 -5.7
2018-May-19 19:00N 70°54' W 152°49'0 0.0 1023.1 -2.6 -6.0
2018-May-19 18:00N 70°54' W 152°49'0 0.0 1023.2 -3.2 -6.2
2018-May-19 17:00N 70°54' W 152°49'0 0.0 1023.2 -4.3 -6.3
2018-May-19 16:00N 70°54' W 152°49'0 0.0 1023.4 -5.7 -6.4
2018-May-19 15:00N 70°54' W 152°49'0 0.0 1023.7 -7.2 -6.3
2018-May-19 14:00N 70°54' W 152°49'0 0.0 1024.2 -8.7 -6.2
2018-May-19 13:00N 70°54' W 152°49'0 0.0 1024.5 -9.6 -6.0
2018-May-19 12:00N 70°54' W 152°49'0 0.0 1024.8 -9.9 -5.8
2018-May-19 11:00N 70°54' W 152°49'0 0.0 1025.1 -8.4 -5.6
2018-May-19 10:00N 70°54' W 152°49'0 0.0 1025.4 -8.5 -5.4
2018-May-19 09:00N 70°54' W 152°49'0 0.0 1025.8 -8.3 -5.2
2018-May-19 08:00N 70°54' W 152°49'0 0.0 1026.0 -7.9 -4.9
2018-May-19 07:00N 70°54' W 152°49'0 0.0 1026.4 -7.3 -4.8
2018-May-19 06:00N 70°54' W 152°49'0 0.0 1026.5 -7.0 -4.6
2018-May-19 05:00N 70°54' W 152°49'0 0.0 1026.7 -6.4 -4.5
2018-May-19 04:00N 70°54' W 152°49'0 0.0 1027.1 -5.7 -4.4
2018-May-19 03:00N 70°54' W 152°49'0 0.0 1027.3 -5.1 -4.3
2018-May-19 02:06N 70°54' W 152°49'0 0.0 1027.7 -4.4
2018-May-19 02:00N 70°54' W 152°49'0 0.0 1027.7 -5.2 -4.4
2018-May-19 01:04N 70°54' W 152°49'0 0.0 1028.1 -4.5
2018-May-19 01:00N 70°54' W 152°49'0 0.0 1028.1 -4.6 -4.5
2018-May-19 00:09N 70°54' W 152°49'0 0.0 1028.6 -4.6
2018-May-19 00:00N 70°54' W 152°49'0 0.0 1028.6 -4.6 -4.6
2018-May-18 23:04N 70°54' W 152°49'0 0.0 1028.9 -4.7
2018-May-18 23:00N 70°54' W 152°49'0 0.0 1028.9 -4.1 -4.7
2018-May-18 22:04N 70°54' W 152°49'0 0.0 1029.3 -5.0
2018-May-18 22:00N 70°54' W 152°49'0 0.0 1029.3 -4.0 -5.0
2018-May-18 21:04N 70°54' W 152°49'0 0.0 1029.6 -5.2
2018-May-18 21:00N 70°54' W 152°49'0 0.0 1029.6 -4.6 -5.2
2018-May-18 20:05N 70°54' W 152°49'0 0.0 1029.8 -5.3
2018-May-18 20:00N 70°54' W 152°49'0 0.0 1029.8 -4.9 -5.3
2018-May-18 19:04N 70°54' W 152°49'0 0.0 1029.9 -5.4
2018-May-18 19:00N 70°54' W 152°49'0 0.0 1029.9 -5.6 -5.4
2018-May-18 18:06N 70°54' W 152°49'0 0.0 1030.0 -5.5
2018-May-18 18:00N 70°54' W 152°49'0 0.0 1030.0 -6.6 -5.5
2018-May-18 17:05N 70°54' W 152°49'0 0.0 1030.1 -5.5
2018-May-18 17:00N 70°54' W 152°49'0 0.0 1030.1 -6.6 -5.5
2018-May-18 16:05N 70°54' W 152°49'0 0.0 1030.0 -5.0
2018-May-18 16:04N 70°54' W 152°49'0 0.0 1030.1 -5.5
2018-May-18 16:00N 70°54' W 152°49'0 0.0 1030.1 -7.2 -5.5
2018-May-16 23:04N 70°54' W 152°49'0 0.0 1023.3 -3.5
2018-May-16 23:00N 70°54' W 152°49'0 0.0 1023.3 -2.7 -3.5
2018-May-16 22:04N 70°54' W 152°49'0 0.0 1023.2 -3.6
2018-May-16 22:00N 70°54' W 152°49'0 0.0 1023.2 -2.4 -3.6
2018-May-16 21:04N 70°54' W 152°49'0 0.0 1023.1 -3.7
2018-May-16 21:00N 70°54' W 152°49'0 0.0 1023.1 -2.6 -3.7
2018-May-16 19:06N 70°54' W 152°49'0 0.0 1022.8 -3.8
2018-May-16 19:00N 70°54' W 152°49'0 0.0 1022.8 -3.4 -3.8
2018-May-16 18:04N 70°54' W 152°49'0 0.0 1022.7 -3.8
2018-May-16 18:00N 70°54' W 152°49'0 0.0 1022.7 -3.6 -3.8
2018-May-16 17:05N 70°54' W 152°49'0 0.0 1022.5 -3.8
2018-May-16 17:00N 70°54' W 152°49'0 0.0 1022.5 -3.8 -3.8
2018-May-16 16:04N 70°54' W 152°49'0 0.0 1022.5 -3.8
2018-May-16 16:00N 70°54' W 152°49'0 0.0 1022.5 -4.0 -3.8
2018-May-16 15:05N 70°54' W 152°49'0 0.0 1022.4 -3.7
2018-May-16 15:00N 70°54' W 152°49'0 0.0 1022.4 -4.5 -3.7
2018-May-16 14:05N 70°54' W 152°49'0 0.0 1022.3 -3.6
2018-May-16 14:00N 70°54' W 152°49'0 0.0 1022.3 -4.5 -3.6
2018-May-16 13:05N 70°54' W 152°49'0 0.0 1022.4 -3.5
2018-May-16 13:00N 70°54' W 152°49'0 0.0 1022.4 -4.7 -3.5
2018-May-16 12:05N 70°54' W 152°49'0 0.0 1022.4 -3.3
2018-May-16 12:00N 70°54' W 152°49'0 0.0 1022.4 -4.4 -3.3
2018-May-16 11:00N 70°54' W 152°49'0 0.0 1022.1 -3.2
2018-May-16 10:05N 70°54' W 152°49'0 0.0 1022.0 -3.0
2018-May-16 10:00N 70°54' W 152°49'0 0.0 1022.0 -3.9 -3.0
2018-May-16 09:04N 70°54' W 152°49'0 0.0 1021.8 -2.9
2018-May-16 09:00N 70°54' W 152°49'0 0.0 1021.8 -3.7 -2.9
2018-May-16 08:05N 70°54' W 152°49'0 0.0 1021.4 -2.7
2018-May-16 08:00N 70°54' W 152°49'0 0.0 1021.4 -3.1 -2.7
2018-May-16 07:05N 70°54' W 152°49'0 0.0 1021.1 -2.6
2018-May-16 07:00N 70°54' W 152°49'0 0.0 1021.1 -2.2 -2.6
2018-May-16 06:04N 70°54' W 152°49'0 0.0 1021.0 -2.5
2018-May-16 06:00N 70°54' W 152°49'0 0.0 1021.0 -1.9 -2.5
2018-May-16 05:04N 70°54' W 152°49'0 0.0 1020.7 -2.5
2018-May-16 05:00N 70°54' W 152°49'0 0.0 1020.7 -1.0 -2.5
2018-May-16 04:05N 70°54' W 152°49'0 0.0 1020.6 -2.4
2018-May-16 04:00N 70°54' W 152°49'0 0.0 1020.6 -0.7 -2.4
2018-May-16 03:00N 70°54' W 152°49'0 0.0 1020.5 0.1 -2.4
2018-May-16 02:05N 70°54' W 152°49'0 0.0 1020.3 -2.5
2018-May-15 22:04N 70°54' W 152°49'0 0.0 1020.1 -2.7
2018-May-15 22:00N 70°54' W 152°49'0 0.0 1020.1 0.7 -2.7
2018-May-15 21:04N 70°54' W 152°49'0 0.0 1019.9 -2.8
2018-May-15 21:00N 70°54' W 152°49'0 0.0 1019.9 0.9 -2.8
2018-May-15 20:00N 70°54' W 152°49'0 0.0 1019.6 0.7 -2.9
2018-May-15 19:05N 70°54' W 152°49'0 0.0 1019.3 -3.0
2018-May-15 19:00N 70°54' W 152°49'0 0.0 1019.3 -0.1 -3.0
2018-May-15 18:04N 70°54' W 152°49'0 0.0 1019.1 -3.1
2018-May-15 18:00N 70°54' W 152°49'0 0.0 1019.1 -0.8 -3.1
2018-May-15 17:06N 70°54' W 152°49'0 0.0 1018.8 -3.1
2018-May-15 17:00N 70°54' W 152°49'0 0.0 1018.8 -1.4 -3.1
2018-May-15 16:04N 70°54' W 152°49'0 0.0 1018.8 -3.1
2018-May-15 16:00N 70°54' W 152°49'0 0.0 1018.8 -2.0 -3.1
2018-May-15 15:00N 70°54' W 152°49'0 0.0 1018.8 -2.2 -3.1
2018-May-15 14:04N 70°54' W 152°49'0 0.0 1018.5 -3.1
2018-May-15 14:00N 70°54' W 152°49'0 0.0 1018.5 -2.7 -3.1
2018-May-15 13:05N 70°54' W 152°49'0 0.0 1018.4 -3.0
2018-May-15 13:00N 70°54' W 152°49'0 0.0 1018.4 -2.9 -3.0
2018-May-15 12:05N 70°54' W 152°49'0 0.0 1018.3 -2.9
2018-May-15 12:00N 70°54' W 152°49'0 0.0 1018.3 -3.0 -2.9
2018-May-15 11:05N 70°54' W 152°49'0 0.0 1018.2 -2.8
2018-May-15 11:00N 70°54' W 152°49'0 0.0 1018.2 -3.0 -2.8
2018-May-15 10:06N 70°54' W 152°49'0 0.0 1018.1 -2.8
2018-May-15 10:00N 70°54' W 152°49'0 0.0 1018.1 -3.0 -2.8
2018-May-15 09:05N 70°54' W 152°49'0 0.0 1017.9 -2.7
2018-May-15 09:00N 70°54' W 152°49'0 0.0 1017.9 -3.0 -2.7
2018-May-15 08:05N 70°54' W 152°49'0 0.0 1017.6 -2.6
2018-May-15 08:00N 70°54' W 152°49'0 0.0 1017.6 -3.0 -2.6
2018-May-15 07:05N 70°54' W 152°49'0 0.0 1017.3 -2.4
2018-May-15 07:00N 70°54' W 152°49'0 0.0 1017.4 -3.0 -2.5
2018-May-15 06:04N 70°54' W 152°49'0 0.0 1015.7 -2.8
2018-May-15 06:00N 70°54' W 152°49'0 0.0 1017.3 -2.7 -2.4
2018-May-13 20:00N 70°54' W 152°49'0 0.0 1016.7 -4.9
2018-May-13 19:05N 70°54' W 152°49'0 0.0 1016.6 -5.0
2018-May-13 19:00N 70°54' W 152°49'0 0.0 1016.6 3.4 -5.0
2018-May-13 18:04N 70°54' W 152°49'0 0.0 1016.5 -5.1
2018-May-13 18:00N 70°54' W 152°49'0 0.0 1016.5 2.8 -5.1
2018-May-13 17:05N 70°54' W 152°49'0 0.0 1016.6 -5.2
2018-May-13 17:00N 70°54' W 152°49'0 0.0 1016.6 2.7 -5.2
2018-May-13 16:04N 70°54' W 152°49'0 0.0 1016.7 -5.2
2018-May-13 16:00N 70°54' W 152°49'0 0.0 1016.7 -0.8 -5.2
2018-May-13 15:05N 70°54' W 152°49'0 0.0 1016.7 -5.1
2018-May-13 15:00N 70°54' W 152°49'0 0.0 1016.7 -2.9 -5.1
2018-May-13 14:06N 70°54' W 152°49'0 0.0 1016.5 -5.0
2018-May-13 14:00N 70°54' W 152°49'0 0.0 1016.5 -4.8 -5.0
2018-May-13 13:04N 70°54' W 152°49'0 0.0 1016.5 -5.0
2018-May-13 13:00N 70°54' W 152°49'0 0.0 1016.5 -4.7 -5.0
2018-May-13 12:05N 70°54' W 152°49'0 0.0 1016.5 -4.9
2018-May-13 12:00N 70°54' W 152°49'0 0.0 1016.5 -5.0 -4.9
2018-May-13 11:00N 70°54' W 152°49'0 0.0 1016.3 -4.1 -4.9
2018-May-13 10:05N 70°54' W 152°49'0 0.0 1016.0 -4.8
2018-May-13 10:00N 70°54' W 152°49'0 0.0 1016.0 -2.9 -4.8
2018-May-13 09:06N 70°54' W 152°49'0 0.0 1008.0 -5.7
2018-May-13 09:00N 70°54' W 152°49'0 0.0 1015.8 -1.7 -4.8
2018-May-12 21:04N 70°54' W 152°49'0 0.0 1007.2 -5.8
2018-May-12 21:00N 70°54' W 152°49'0 0.0 1007.2 1.5 -5.8
2018-May-12 20:05N 70°54' W 152°49'0 0.0 1006.9 -5.8
2018-May-12 20:00N 70°54' W 152°49'0 0.0 1006.9 -1.1 -5.8
2018-May-12 19:04N 70°54' W 152°49'0 0.0 1006.9 -5.8
2018-May-12 19:00N 70°54' W 152°49'0 0.0 1006.9 -1.3 -5.8
2018-May-12 18:04N 70°54' W 152°49'0 0.0 1006.7 -5.9
2018-May-12 18:00N 70°54' W 152°49'0 0.0 1006.7 -2.2 -5.9
2018-May-12 17:06N 70°54' W 152°49'0 0.0 1006.4 -5.9
2018-May-12 17:00N 70°54' W 152°49'0 0.0 1006.4 -2.6 -5.9
2018-May-12 16:05N 70°54' W 152°49'0 0.0 1006.1 -5.9
2018-May-12 16:00N 70°54' W 152°49'0 0.0 1006.1 -3.1 -5.9
2018-May-12 15:08N 70°54' W 152°49'0 0.0 1005.8 -5.9
2018-May-12 15:00N 70°54' W 152°49'0 0.0 1005.8 -3.4 -5.9
2018-May-12 14:04N 70°54' W 152°49'0 0.0 1005.4 -5.9
2018-May-12 14:00N 70°54' W 152°49'0 0.0 1005.4 -3.3 -5.9
2018-May-12 13:05N 70°54' W 152°49'0 0.0 1004.9 -5.8
2018-May-12 13:00N 70°54' W 152°49'0 0.0 1004.9 -3.4 -5.8
2018-May-12 12:04N 70°54' W 152°49'0 0.0 1004.6 -5.8
2018-May-12 12:00N 70°54' W 152°49'0 0.0 1004.6 -3.4 -5.8
2018-May-12 11:05N 70°54' W 152°49'0 0.0 1004.4 -5.8
2018-May-12 11:00N 70°54' W 152°49'0 0.0 1004.4 -3.2 -5.8
2018-May-12 10:04N 70°54' W 152°49'0 0.0 1004.2 -5.7
2018-May-12 10:00N 70°54' W 152°49'0 0.0 1004.2 -3.1 -5.7
2018-May-12 09:04N 70°54' W 152°49'0 0.0 1003.9 -5.7
2018-May-12 09:00N 70°54' W 152°49'0 0.0 1003.9 -2.9 -5.7
2018-May-12 08:04N 70°54' W 152°49'0 0.0 1003.7 -5.7
2018-May-12 08:00N 70°54' W 152°49'0 0.0 1003.7 -2.7 -5.7
2018-May-12 07:04N 70°54' W 152°49'0 0.0 1003.1 -5.7
2018-May-12 07:00N 70°54' W 152°49'0 0.0 1003.1 -2.5 -5.7
2018-May-12 06:04N 70°54' W 152°49'0 0.0 1002.9 -5.7
2018-May-12 06:00N 70°54' W 152°49'0 0.0 1002.9 -2.0 -5.7
2018-May-12 05:05N 70°54' W 152°49'0 0.0 1002.7 -5.8
2018-May-12 05:00N 70°54' W 152°49'0 0.0 1002.7 -1.5 -5.8
2018-May-12 04:05N 70°54' W 152°49'0 0.0 1002.5 -5.8
2018-May-12 04:00N 70°54' W 152°49'0 0.0 1002.5 -1.1 -5.8
2018-May-12 03:07N 70°54' W 152°49'0 0.0 1002.5 -5.9
2018-May-12 03:00N 70°54' W 152°49'0 0.0 1002.5 -0.9 -5.9
2018-May-12 02:04N 70°54' W 152°49'0 0.0 1002.6 -6.0
2018-May-12 02:00N 70°54' W 152°49'0 0.0 1002.6 -0.8 -6.0
2018-May-12 01:05N 70°54' W 152°49'0 0.0 1002.8 -6.1
2018-May-12 01:00N 70°54' W 152°49'0 0.0 1002.8 -0.8 -6.1
2018-May-12 00:00N 70°54' W 152°49'0 0.0 1002.8 -0.8 -6.2
2018-May-11 23:05N 70°54' W 152°49'0 0.0 1002.8 -6.3
2018-May-11 23:00N 70°54' W 152°49'0 0.0 1002.8 -1.5 -6.3
2018-May-11 22:04N 70°54' W 152°49'0 0.0 1003.0 -6.4
2018-May-11 22:00N 70°54' W 152°49'0 0.0 1003.0 -1.7 -6.4
2018-May-11 21:04N 70°54' W 152°49'0 0.0 1003.1 -6.5
2018-May-11 21:00N 70°54' W 152°49'0 0.0 1003.1 -2.3 -6.5
2018-May-11 20:05N 70°54' W 152°49'0 0.0 1003.2 -6.6
2018-May-11 20:00N 70°54' W 152°49'0 0.0 1003.2 -2.6 -6.6
2018-May-11 19:04N 70°54' W 152°49'0 0.0 1003.6 -6.7
2018-May-11 19:00N 70°54' W 152°49'0 0.0 1003.6 -3.2 -6.7
2018-May-11 18:04N 70°54' W 152°49'0 0.0 1004.1 -6.7
2018-May-11 18:00N 70°54' W 152°49'0 0.0 1004.1 -3.6 -6.7
2018-May-11 17:04N 70°54' W 152°49'0 0.0 1004.5 -6.7
2018-May-11 17:00N 70°54' W 152°49'0 0.0 1004.5 -4.0 -6.7
2018-May-11 16:04N 70°54' W 152°49'0 0.0 1004.7 -6.7
2018-May-11 16:00N 70°54' W 152°49'0 0.0 1004.7 -4.5 -6.7
2018-May-11 15:05N 70°54' W 152°49'0 0.0 1005.2 -6.7
2018-May-11 15:00N 70°54' W 152°49'0 0.0 1005.2 -5.2 -6.7
2018-May-11 14:05N 70°54' W 152°49'0 0.0 1005.6 -6.7
2018-May-11 14:00N 70°54' W 152°49'0 0.0 1005.6 -5.1 -6.7
2018-May-11 13:05N 70°54' W 152°49'0 0.0 1006.2 -6.6
2018-May-11 13:00N 70°54' W 152°49'0 0.0 1006.2 -5.1 -6.6
2018-May-11 12:05N 70°54' W 152°49'0 0.0 1006.5 -6.6
2018-May-11 12:00N 70°54' W 152°49'0 0.0 1006.5 -5.1 -6.6
2018-May-11 11:05N 70°54' W 152°49'0 0.0 1006.9 -6.5
2018-May-11 11:00N 70°54' W 152°49'0 0.0 1006.9 -5.0 -6.5
2018-May-11 10:04N 70°54' W 152°49'0 0.0 1007.0 -6.5
2018-May-11 10:00N 70°54' W 152°49'0 0.0 1007.0 -5.0 -6.5
2018-May-11 09:05N 70°54' W 152°49'0 0.0 1007.3 -6.4
2018-May-11 09:00N 70°54' W 152°49'0 0.0 1007.3 -4.8 -6.4
2018-May-11 08:07N 70°54' W 152°49'0 0.0 1007.7 -6.4
2018-May-11 08:00N 70°54' W 152°49'0 0.0 1007.7 -4.3 -6.4
2018-May-11 07:04N 70°54' W 152°49'0 0.0 1008.0 -6.4
2018-May-11 07:00N 70°54' W 152°49'0 0.0 1008.0 -3.7 -6.4
2018-May-11 06:04N 70°54' W 152°49'0 0.0 1007.7 -6.4
2018-May-11 06:00N 70°54' W 152°49'0 0.0 1007.7 -3.4 -6.4
2018-May-11 05:04N 70°54' W 152°49'0 0.0 1008.6 -6.4
2018-May-11 05:00N 70°54' W 152°49'0 0.0 1008.6 -3.1 -6.4
2018-May-11 04:05N 70°54' W 152°49'0 0.0 1009.0 -6.5
2018-May-11 04:00N 70°54' W 152°49'0 0.0 1009.0 -2.9 -6.5
2018-May-11 03:05N 70°54' W 152°49'0 0.0 1009.0 -6.6
2018-May-11 03:00N 70°54' W 152°49'0 0.0 1009.0 -2.3 -6.6
2018-May-11 02:04N 70°54' W 152°49'0 0.0 1009.0 -6.7
2018-May-11 02:00N 70°54' W 152°49'0 0.0 1009.0 -1.8 -6.7
2018-May-11 01:06N 70°54' W 152°49'0 0.0 1009.9 -7.1
2018-May-11 01:00N 70°54' W 152°49'0 0.0 1009.4 -2.2 -6.9
2018-May-11 00:00N 70°54' W 152°49'0 0.0 1009.9 -1.4 -7.1
2018-May-10 23:05N 70°54' W 152°49'0 0.0 1010.3 -7.3
2018-May-10 23:00N 70°54' W 152°49'0 0.0 1010.3 -2.0 -7.3
2018-May-10 22:05N 70°54' W 152°49'0 0.0 1010.2 -7.4
2018-May-10 22:00N 70°54' W 152°49'0 0.0 1010.2 -2.4 -7.4
2018-May-10 21:07N 70°54' W 152°49'0 0.0 1010.8 -7.6
2018-May-10 21:00N 70°54' W 152°49'0 0.0 1010.8 -2.1 -7.6
2018-May-10 20:05N 70°54' W 152°49'0 0.0 1011.2 -7.7
2018-May-10 20:00N 70°54' W 152°49'0 0.0 1011.2 -1.9 -7.7
2018-May-10 19:05N 70°54' W 152°49'   1011.4 -7.8

Dump ship's entire track history